createdAt,value
2023-05-08T00:00:29.932Z,27.92
2023-05-08T00:02:56.395Z,24.45
2023-05-08T00:05:22.752Z,29.38
2023-05-08T00:07:51.075Z,26.23
2023-05-08T00:10:17.504Z,27.85
2023-05-08T00:12:43.759Z,24.52
2023-05-08T00:15:10.644Z,26.10
2023-05-08T00:17:36.954Z,26.88
2023-05-08T00:20:03.307Z,26.95
2023-05-08T00:22:29.599Z,24.70
2023-05-08T00:24:55.820Z,24.63
2023-05-08T00:27:22.047Z,27.55
2023-05-08T00:29:48.456Z,26.35
2023-05-08T00:32:14.787Z,24.13
2023-05-08T00:34:41.101Z,21.13
2023-05-08T00:37:07.334Z,19.98
2023-05-08T00:39:33.581Z,23.75
2023-05-08T00:42:00.022Z,23.63
2023-05-08T00:44:26.612Z,27.40
2023-05-08T00:46:52.968Z,23.02
2023-05-08T00:49:19.414Z,24.42
2023-05-08T00:51:46.898Z,23.17
2023-05-08T00:54:13.745Z,22.02
2023-05-08T00:59:13.557Z,22.67
2023-05-08T01:01:40.761Z,27.73
2023-05-08T01:04:07.358Z,26.08
2023-05-08T01:06:34.192Z,26.45
2023-05-08T01:09:00.724Z,26.23
2023-05-08T01:11:44.380Z,28.65
2023-05-08T01:14:10.706Z,25.70
2023-05-08T01:16:43.956Z,32.72
2023-05-08T01:19:25.754Z,36.80
2023-05-08T01:22:01.028Z,29.33
2023-05-08T01:24:53.688Z,31.85
2023-05-08T01:27:32.153Z,29.40
2023-05-08T01:29:58.350Z,28.67
2023-05-08T01:32:30.155Z,27.73
2023-05-08T01:35:03.701Z,25.25
2023-05-08T01:37:32.718Z,25.67
2023-05-08T01:40:09.862Z,28.75
2023-05-08T01:42:44.267Z,28.85
2023-05-08T01:45:26.772Z,26.35
2023-05-08T01:48:00.396Z,27.38
2023-05-08T01:50:31.002Z,27.15
2023-05-08T01:53:00.287Z,28.00
2023-05-08T01:55:30.498Z,28.05
2023-05-08T01:57:57.716Z,29.42
2023-05-08T02:00:25.330Z,25.67
2023-05-08T02:02:52.321Z,31.02
2023-05-08T02:05:20.867Z,27.10
2023-05-08T02:07:47.832Z,30.23
2023-05-08T02:12:40.827Z,31.27
2023-05-08T02:15:07.990Z,26.63
2023-05-08T02:17:34.828Z,28.20
2023-05-08T02:22:28.122Z,28.88
2023-05-08T02:24:55.622Z,32.70
2023-05-08T02:27:23.283Z,33.80
2023-05-08T02:29:51.246Z,38.28
2023-05-08T02:32:19.539Z,35.08
2023-05-08T02:34:58.946Z,36.33
2023-05-08T02:37:29.730Z,38.45
2023-05-08T02:39:56.510Z,37.67
2023-05-08T02:42:22.737Z,37.38
2023-05-08T02:44:48.991Z,37.35
2023-05-08T02:47:17.888Z,37.72
2023-05-08T02:49:56.687Z,31.30
2023-05-08T02:52:25.278Z,35.58
2023-05-08T02:54:57.129Z,32.08
2023-05-08T02:57:23.385Z,43.28
2023-05-08T03:00:14.638Z,33.47
2023-05-08T03:02:43.089Z,28.27
2023-05-08T03:05:17.205Z,33.22
2023-05-08T03:07:45.135Z,32.33
2023-05-08T03:10:13.284Z,36.85
2023-05-08T03:12:42.799Z,32.95
2023-05-08T03:15:15.019Z,34.22
2023-05-08T03:17:42.773Z,34.05
2023-05-08T03:20:12.350Z,32.47
2023-05-08T03:22:39.886Z,31.98
2023-05-08T03:25:07.176Z,27.15
2023-05-08T03:27:34.327Z,27.15
2023-05-08T03:30:01.730Z,31.05
2023-05-08T03:32:28.221Z,26.77
2023-05-08T03:34:55.388Z,27.60
2023-05-08T03:37:21.624Z,26.00
2023-05-08T03:39:47.872Z,25.65
2023-05-08T03:42:21.325Z,28.52
2023-05-08T03:44:50.038Z,26.08
2023-05-08T03:47:17.092Z,29.33
2023-05-08T03:49:45.164Z,25.00
2023-05-08T03:52:12.106Z,28.40
2023-05-08T03:57:04.622Z,29.17
2023-05-08T03:59:46.674Z,25.88
2023-05-08T04:02:17.484Z,29.08
2023-05-08T04:04:45.221Z,30.63
2023-05-08T04:07:30.271Z,28.45
2023-05-08T04:10:00.311Z,27.65
2023-05-08T04:12:36.420Z,29.15
2023-05-08T04:15:07.426Z,27.10
2023-05-08T04:17:33.780Z,27.30
2023-05-08T04:20:02.537Z,26.33
2023-05-08T04:22:29.442Z,27.67
2023-05-08T04:27:21.963Z,25.75
2023-05-08T04:29:48.287Z,25.55
2023-05-08T04:32:14.795Z,22.98
2023-05-08T04:34:41.259Z,25.50
2023-05-08T04:37:08.077Z,24.13
2023-05-08T04:42:03.598Z,21.88
2023-05-08T04:44:29.882Z,31.45
2023-05-08T04:46:56.142Z,28.17
2023-05-08T04:49:22.370Z,24.70
2023-05-08T04:51:48.594Z,24.15
2023-05-08T04:54:15.047Z,26.60
2023-05-08T04:56:41.280Z,23.27
2023-05-08T04:59:07.512Z,24.35
2023-05-08T05:01:33.760Z,24.02
2023-05-08T05:04:00.055Z,25.13
2023-05-08T05:06:27.493Z,18.67
2023-05-08T05:08:53.726Z,23.50
2023-05-08T05:11:19.989Z,19.38
2023-05-08T05:13:46.209Z,17.08
2023-05-08T05:16:13.334Z,18.08
2023-05-08T05:18:39.599Z,17.05
2023-05-08T05:21:05.898Z,16.30
2023-05-08T05:23:32.158Z,23.75
2023-05-08T05:25:58.378Z,22.30
2023-05-08T05:28:24.605Z,20.05
2023-05-08T05:30:50.865Z,22.88
2023-05-08T05:33:17.398Z,14.30
2023-05-08T05:35:43.800Z,16.00
2023-05-08T05:38:10.034Z,12.50
2023-05-08T05:40:36.310Z,13.77
2023-05-08T05:43:02.573Z,14.05
2023-05-08T05:45:30.213Z,16.52
2023-05-08T05:47:57.464Z,12.65
2023-05-08T05:50:23.747Z,10.30
2023-05-08T05:52:50.012Z,14.85
2023-05-08T05:55:16.359Z,8.77
2023-05-08T05:57:42.628Z,10.80
2023-05-08T06:00:09.135Z,9.70
2023-05-08T06:02:39.054Z,10.65
2023-05-08T06:05:05.553Z,9.30
2023-05-08T06:07:31.838Z,7.40
2023-05-08T06:09:58.078Z,10.93
2023-05-08T06:12:24.485Z,10.75
2023-05-08T06:14:51.782Z,14.82
2023-05-08T06:17:18.816Z,9.00
2023-05-08T06:19:50.127Z,10.85
2023-05-08T06:22:17.415Z,11.85
2023-05-08T06:24:43.948Z,6.57
2023-05-08T06:27:10.617Z,8.55
2023-05-08T06:29:36.882Z,6.32
2023-05-08T06:32:03.225Z,7.78
2023-05-08T06:34:29.456Z,8.57
2023-05-08T06:36:55.672Z,7.45
2023-05-08T06:39:21.877Z,6.72
2023-05-08T06:41:48.847Z,8.70
2023-05-08T06:46:41.357Z,8.20
2023-05-08T06:49:07.686Z,9.50
2023-05-08T06:51:35.584Z,8.15
2023-05-08T06:54:01.844Z,7.50
2023-05-08T06:56:28.113Z,11.35
2023-05-08T06:59:04.844Z,12.65
2023-05-08T07:01:34.554Z,6.85
2023-05-08T07:04:01.209Z,9.15
2023-05-08T07:06:27.649Z,7.15
2023-05-08T07:08:53.906Z,9.98
2023-05-08T07:11:20.182Z,7.70
2023-05-08T07:13:48.178Z,8.93
2023-05-08T07:16:15.600Z,10.00
2023-05-08T07:18:42.255Z,7.38
2023-05-08T07:21:08.657Z,10.25
2023-05-08T07:23:34.892Z,7.65
2023-05-08T07:26:01.226Z,7.65
2023-05-08T07:28:27.529Z,11.63
2023-05-08T07:30:53.820Z,10.38
2023-05-08T07:33:20.348Z,8.80
2023-05-08T07:35:46.664Z,12.85
2023-05-08T07:38:12.886Z,9.27
2023-05-08T07:40:39.142Z,9.20
2023-05-08T07:43:05.385Z,8.55
2023-05-08T07:45:31.597Z,9.70
2023-05-08T07:47:58.647Z,8.85
2023-05-08T07:50:25.593Z,11.27
2023-05-08T07:55:18.629Z,15.45
2023-05-08T07:57:45.005Z,10.93
2023-05-08T08:00:14.721Z,12.70
2023-05-08T08:02:41.598Z,10.40
2023-05-08T08:05:08.311Z,11.95
2023-05-08T08:07:34.659Z,14.27
2023-05-08T08:10:01.691Z,14.80
2023-05-08T08:12:28.514Z,10.57
2023-05-08T08:14:55.230Z,13.27
2023-05-08T08:17:22.385Z,13.73
2023-05-08T08:19:48.752Z,12.65
2023-05-08T08:22:15.130Z,9.85
2023-05-08T08:24:41.366Z,16.33
2023-05-08T08:27:08.316Z,12.23
2023-05-08T08:29:34.540Z,12.13
2023-05-08T08:32:03.069Z,12.40
2023-05-08T08:34:29.308Z,13.30
2023-05-08T08:36:55.577Z,12.90
2023-05-08T08:39:22.608Z,12.30
2023-05-08T08:41:48.854Z,17.02
2023-05-08T08:44:15.091Z,9.68
2023-05-08T08:46:44.527Z,11.45
2023-05-08T08:49:13.402Z,15.13
2023-05-08T08:51:50.213Z,12.88
2023-05-08T08:54:20.391Z,12.27
2023-05-08T08:56:48.511Z,11.75
2023-05-08T08:59:15.853Z,15.15
2023-05-08T09:01:44.149Z,15.30
2023-05-08T09:04:11.155Z,14.25
2023-05-08T09:06:38.334Z,30.48
2023-05-08T09:09:05.426Z,14.68
2023-05-08T09:11:31.794Z,15.50
2023-05-08T09:13:58.512Z,13.70
2023-05-08T09:16:25.121Z,13.15
2023-05-08T09:18:51.540Z,12.10
2023-05-08T09:21:18.058Z,14.82
2023-05-08T09:23:57.004Z,11.68
2023-05-08T09:26:39.316Z,16.00
2023-05-08T09:29:25.811Z,12.65
2023-05-08T09:31:52.826Z,16.95
2023-05-08T09:34:23.548Z,12.75
2023-05-08T09:36:50.137Z,13.02
2023-05-08T09:39:21.989Z,13.55
2023-05-08T09:41:58.691Z,14.32
2023-05-08T09:44:24.939Z,12.52
2023-05-08T09:46:51.235Z,14.07
2023-05-08T09:49:18.315Z,18.38
2023-05-08T09:51:54.321Z,17.65
2023-05-08T09:54:20.762Z,14.15
2023-05-08T09:56:46.981Z,15.10
2023-05-08T09:59:26.724Z,12.85
2023-05-08T10:01:53.097Z,13.75
2023-05-08T10:04:32.047Z,13.50
2023-05-08T10:06:58.656Z,18.52
2023-05-08T10:09:26.138Z,14.52
2023-05-08T10:11:55.303Z,12.98
2023-05-08T10:14:22.329Z,13.88
2023-05-08T10:16:52.700Z,16.42
2023-05-08T10:19:20.159Z,12.20
2023-05-08T10:21:47.843Z,11.75
2023-05-08T10:24:15.637Z,14.73
2023-05-08T10:26:53.643Z,13.32
2023-05-08T10:29:33.070Z,13.82
2023-05-08T10:31:59.775Z,13.52
2023-05-08T10:34:27.011Z,12.80
2023-05-08T10:36:54.218Z,13.68
2023-05-08T10:39:20.670Z,16.27
2023-05-08T10:41:48.277Z,15.40
2023-05-08T10:44:14.784Z,15.98
2023-05-08T10:46:46.261Z,10.38
2023-05-08T10:49:16.536Z,11.15
2023-05-08T10:51:42.841Z,14.68
2023-05-08T10:54:12.849Z,10.52
2023-05-08T10:56:39.382Z,14.65
2023-05-08T10:59:06.167Z,13.32
2023-05-08T11:01:32.483Z,12.80
2023-05-08T11:03:58.838Z,11.98
2023-05-08T11:06:45.494Z,11.95
2023-05-08T11:09:18.719Z,10.30
2023-05-08T11:11:51.014Z,9.07
2023-05-08T11:14:18.064Z,9.73
2023-05-08T11:17:03.110Z,14.15
2023-05-08T11:19:29.652Z,9.65
2023-05-08T11:22:12.429Z,8.32
2023-05-08T11:24:39.257Z,8.52
2023-05-08T11:29:31.923Z,8.88
2023-05-08T11:31:58.218Z,11.68
2023-05-08T11:34:43.105Z,11.20
2023-05-08T11:37:22.632Z,8.05
2023-05-08T11:39:48.921Z,9.43
2023-05-08T11:42:27.255Z,8.85
2023-05-08T11:45:19.708Z,8.82
2023-05-08T11:47:46.236Z,8.43
2023-05-08T11:50:13.373Z,7.88
2023-05-08T11:52:40.711Z,7.95
2023-05-08T11:55:08.702Z,7.93
2023-05-08T11:57:35.098Z,7.90
2023-05-08T12:00:08.040Z,8.57
2023-05-08T12:02:38.193Z,11.40
2023-05-08T12:05:05.009Z,12.43
2023-05-08T12:09:57.561Z,14.75
2023-05-08T12:12:23.865Z,11.88
2023-05-08T12:14:51.183Z,11.93
2023-05-08T12:17:19.008Z,10.48
2023-05-08T12:19:45.345Z,9.95
2023-05-08T12:22:11.905Z,11.75
2023-05-08T12:27:04.344Z,10.20
2023-05-08T12:29:30.662Z,9.75
2023-05-08T12:31:57.209Z,12.77
2023-05-08T12:34:23.593Z,8.82
2023-05-08T12:41:48.553Z,8.20
2023-05-08T12:44:18.449Z,7.22
2023-05-08T12:46:49.713Z,6.20
2023-05-08T12:49:22.753Z,11.40
2023-05-08T12:51:50.665Z,7.88
2023-05-08T12:54:16.959Z,9.68
2023-05-08T12:56:44.586Z,6.38
2023-05-08T12:59:10.821Z,6.50
2023-05-08T13:01:37.205Z,5.03
2023-05-08T13:06:29.947Z,5.57
2023-05-08T13:08:56.264Z,5.55
2023-05-08T13:11:29.156Z,5.35
2023-05-08T13:13:55.467Z,6.80
2023-05-08T13:16:21.757Z,9.68
2023-05-08T13:18:48.021Z,5.47
2023-05-08T13:21:14.301Z,6.00
2023-05-08T13:23:43.205Z,6.22
2023-05-08T13:26:09.475Z,5.72
2023-05-08T13:28:35.871Z,10.25
2023-05-08T13:31:02.108Z,7.43
2023-05-08T13:33:28.334Z,9.98
2023-05-08T13:35:55.117Z,8.07
2023-05-08T13:38:21.351Z,8.18
2023-05-08T13:40:47.589Z,6.13
2023-05-08T13:43:13.803Z,4.60
2023-05-08T13:45:40.174Z,5.13
2023-05-08T13:48:06.545Z,6.53
2023-05-08T13:50:32.872Z,3.67
2023-05-08T13:52:59.283Z,6.43
2023-05-08T13:55:25.713Z,4.22
2023-05-08T13:57:52.015Z,6.88
2023-05-08T14:00:18.583Z,3.45
2023-05-08T14:02:45.101Z,5.93
2023-05-08T14:07:38.016Z,4.55
2023-05-08T14:10:04.514Z,3.55
2023-05-08T14:12:30.891Z,6.18
2023-05-08T14:14:57.216Z,3.00
2023-05-08T14:17:23.593Z,4.72
2023-05-08T14:19:50.030Z,12.40
2023-05-08T14:22:16.317Z,4.15
2023-05-08T14:24:42.671Z,4.25
2023-05-08T14:27:08.904Z,4.63
2023-05-08T14:29:35.330Z,5.05
2023-05-08T14:32:01.881Z,7.13
2023-05-08T14:36:54.418Z,4.25
2023-05-08T14:39:20.834Z,4.57
2023-05-08T14:42:05.244Z,7.43
2023-05-08T14:44:33.493Z,4.35
2023-05-08T14:46:59.756Z,6.18
2023-05-08T14:52:12.245Z,5.25
2023-05-08T14:54:38.706Z,6.38
2023-05-08T14:57:05.141Z,6.88
2023-05-08T14:59:31.390Z,4.88
2023-05-08T15:01:57.632Z,7.15
2023-05-08T15:04:24.180Z,7.80
2023-05-08T15:06:50.572Z,4.47
2023-05-08T15:09:17.159Z,4.90
2023-05-08T15:11:43.624Z,4.13
2023-05-08T15:14:09.943Z,3.47
2023-05-08T15:16:36.294Z,5.72
2023-05-08T15:19:02.522Z,7.35
2023-05-08T15:21:28.781Z,5.72
2023-05-08T15:23:55.622Z,7.35
2023-05-08T15:26:22.383Z,5.25
2023-05-08T15:31:14.862Z,5.57
2023-05-08T15:33:44.631Z,6.97
2023-05-08T15:36:11.812Z,7.53
2023-05-08T15:38:38.072Z,5.93
2023-05-08T15:41:04.793Z,6.78
2023-05-08T15:45:57.678Z,7.57
2023-05-08T15:48:23.946Z,9.60
2023-05-08T15:50:50.162Z,6.93
2023-05-08T15:53:16.392Z,6.65
2023-05-08T15:55:42.768Z,9.68
2023-05-08T15:58:08.990Z,7.05
2023-05-08T16:00:43.941Z,10.75
2023-05-08T16:03:11.897Z,10.40
2023-05-08T16:05:39.388Z,8.30
2023-05-08T16:08:05.950Z,9.50
2023-05-08T16:10:32.176Z,7.28
2023-05-08T16:12:58.433Z,8.82
2023-05-08T16:15:24.745Z,11.48
2023-05-08T16:17:51.046Z,9.55
2023-05-08T16:20:17.298Z,11.93
2023-05-08T16:22:43.555Z,10.50
2023-05-08T16:25:09.920Z,9.65
2023-05-08T16:27:36.856Z,10.55
2023-05-08T16:30:03.277Z,9.43
2023-05-08T16:32:29.557Z,7.93
2023-05-08T16:34:55.866Z,7.97
2023-05-08T16:37:22.419Z,7.47
2023-05-08T16:39:48.830Z,9.05
2023-05-08T16:42:15.190Z,8.40
2023-05-08T16:44:41.434Z,11.88
2023-05-08T16:47:07.751Z,12.85
2023-05-08T16:49:34.069Z,9.10
2023-05-08T16:52:00.287Z,9.63
2023-05-08T16:54:26.527Z,7.95
2023-05-08T16:56:52.861Z,8.30
2023-05-08T16:59:19.089Z,13.35
2023-05-08T17:01:45.457Z,10.48
2023-05-08T17:04:11.908Z,7.63
2023-05-08T17:06:39.242Z,9.30
2023-05-08T17:09:05.708Z,10.93
2023-05-08T17:11:31.950Z,9.18
2023-05-08T17:13:58.156Z,9.77
2023-05-08T17:16:24.596Z,11.07
2023-05-08T17:18:50.887Z,11.80
2023-05-08T17:21:17.110Z,25.60
2023-05-08T17:23:45.458Z,10.25
2023-05-08T17:26:11.697Z,10.90
2023-05-08T17:28:37.983Z,14.13
2023-05-08T17:31:04.259Z,13.20
2023-05-08T17:33:30.548Z,12.60
2023-05-08T17:35:56.800Z,10.35
2023-05-08T17:38:23.013Z,10.45
2023-05-08T17:40:49.313Z,13.13
2023-05-08T17:43:15.522Z,14.70
2023-05-08T17:45:41.898Z,12.63
2023-05-08T17:48:08.194Z,14.80
2023-05-08T17:50:35.037Z,14.93
2023-05-08T17:55:27.440Z,11.07
2023-05-08T17:57:53.709Z,18.58
2023-05-08T18:00:19.976Z,14.05
2023-05-08T18:02:46.307Z,15.88
2023-05-08T18:05:12.622Z,11.98
2023-05-08T18:07:38.898Z,13.40
2023-05-08T18:10:05.533Z,11.35
2023-05-08T18:12:32.208Z,11.23
2023-05-08T18:14:59.362Z,14.18
2023-05-08T18:17:29.169Z,10.75
2023-05-08T18:19:55.382Z,10.52
2023-05-08T18:22:21.638Z,10.95
2023-05-08T18:24:49.923Z,18.88
2023-05-08T18:27:16.161Z,13.93
2023-05-08T18:29:42.385Z,12.40
2023-05-08T18:32:08.613Z,12.60
2023-05-08T18:34:34.878Z,16.08
2023-05-08T18:37:01.128Z,22.30
2023-05-08T18:39:27.380Z,15.77
2023-05-08T18:41:53.600Z,16.75
2023-05-08T18:44:19.817Z,15.20
2023-05-08T18:46:46.426Z,15.85
2023-05-08T18:49:12.767Z,19.95
2023-05-08T18:51:38.996Z,23.02
2023-05-08T18:54:05.517Z,14.60
2023-05-08T18:56:34.123Z,16.48
2023-05-08T18:59:00.763Z,15.18
2023-05-08T19:01:27.066Z,18.40
2023-05-08T19:03:53.960Z,16.70
2023-05-08T19:06:20.297Z,19.98
2023-05-08T19:08:47.215Z,17.85
2023-05-08T19:11:13.473Z,15.63
2023-05-08T19:13:39.704Z,22.15
2023-05-08T19:16:06.082Z,16.58
2023-05-08T19:18:32.327Z,19.35
2023-05-08T19:20:58.579Z,19.77
2023-05-08T19:23:24.819Z,22.38
2023-05-08T19:25:51.061Z,20.73
2023-05-08T19:28:17.369Z,21.00
2023-05-08T19:30:43.612Z,16.42
2023-05-08T19:33:09.915Z,18.27
2023-05-08T19:35:36.129Z,20.25
2023-05-08T19:38:02.468Z,14.90
2023-05-08T19:40:28.681Z,24.13
2023-05-08T19:42:54.932Z,18.50
2023-05-08T19:45:21.210Z,16.08
2023-05-08T19:47:49.062Z,18.33
2023-05-08T19:50:18.016Z,18.38
2023-05-08T19:52:48.392Z,14.27
2023-05-08T19:55:17.766Z,16.10
2023-05-08T19:57:44.453Z,22.75
2023-05-08T20:00:11.212Z,21.98
2023-05-08T20:05:21.827Z,19.77
2023-05-08T20:07:49.093Z,15.70
2023-05-08T20:10:15.601Z,16.60
2023-05-08T20:12:42.063Z,14.73
2023-05-08T20:15:08.694Z,18.05
2023-05-08T20:17:34.946Z,22.02
2023-05-08T20:20:01.281Z,17.90
2023-05-08T20:22:27.513Z,15.48
2023-05-08T20:24:53.750Z,17.48
2023-05-08T20:27:20.047Z,18.45
2023-05-08T20:29:46.678Z,27.02
2023-05-08T20:32:18.870Z,32.65
2023-05-08T20:34:45.120Z,22.27
2023-05-08T20:37:11.475Z,20.63
2023-05-08T20:39:37.726Z,17.38
2023-05-08T20:42:03.961Z,18.17
2023-05-08T20:44:30.319Z,26.05
2023-05-08T20:46:56.690Z,21.75
2023-05-08T20:49:22.924Z,22.63
2023-05-08T20:51:49.215Z,22.25
2023-05-08T20:54:15.561Z,21.98
2023-05-08T20:56:41.792Z,20.17
2023-05-08T20:59:08.274Z,19.65
2023-05-08T21:01:34.512Z,15.13
2023-05-08T21:04:00.791Z,18.55
2023-05-08T21:06:27.080Z,16.88
2023-05-08T21:08:53.402Z,16.77
2023-05-08T21:11:19.628Z,17.30
2023-05-08T21:13:45.852Z,20.08
2023-05-08T21:16:12.186Z,16.73
2023-05-08T21:18:38.514Z,16.92
2023-05-08T21:21:13.408Z,21.05
2023-05-08T21:23:39.664Z,14.82
2023-05-08T21:26:05.930Z,21.05
2023-05-08T21:28:32.204Z,16.50
2023-05-08T21:30:58.417Z,20.05
2023-05-08T21:33:24.771Z,20.20
2023-05-08T21:35:50.974Z,17.67
2023-05-08T21:38:17.233Z,23.10
2023-05-08T21:40:43.532Z,17.92
2023-05-08T21:43:09.825Z,21.70
2023-05-08T21:45:36.186Z,15.23
2023-05-08T21:48:02.462Z,21.67
2023-05-08T21:50:28.867Z,19.75
2023-05-08T21:52:56.464Z,15.60
2023-05-08T21:55:23.154Z,18.63
2023-05-08T21:57:49.395Z,19.38
2023-05-08T22:00:16.461Z,16.52
2023-05-08T22:02:42.759Z,19.52
2023-05-08T22:05:09.114Z,17.75
2023-05-08T22:07:35.527Z,19.35
2023-05-08T22:10:01.760Z,18.52
2023-05-08T22:12:28.048Z,19.20
2023-05-08T22:14:54.313Z,18.38
2023-05-08T22:17:20.534Z,16.70
2023-05-08T22:19:46.760Z,20.35
2023-05-08T22:22:13.081Z,20.02
2023-05-08T22:24:39.304Z,23.63
2023-05-08T22:27:05.820Z,18.63
2023-05-08T22:29:32.053Z,19.80
2023-05-08T22:31:58.292Z,22.02
2023-05-08T22:34:24.560Z,20.70
2023-05-08T22:36:50.849Z,19.90
2023-05-08T22:39:17.098Z,18.73
2023-05-08T22:41:43.562Z,23.23
2023-05-08T22:44:10.704Z,16.88
2023-05-08T22:46:38.114Z,18.98
2023-05-08T22:49:04.457Z,20.05
2023-05-08T22:51:32.503Z,20.63
2023-05-08T22:53:58.736Z,17.42
2023-05-08T22:56:24.966Z,19.77
2023-05-08T22:58:51.259Z,18.00
2023-05-08T23:01:17.748Z,20.33
2023-05-08T23:03:44.044Z,19.10
2023-05-08T23:06:10.275Z,18.60
2023-05-08T23:08:36.771Z,17.45
2023-05-08T23:11:03.447Z,15.65
2023-05-08T23:13:31.321Z,19.45
2023-05-08T23:15:57.527Z,19.75
2023-05-08T23:18:23.754Z,17.15
2023-05-08T23:20:50.017Z,18.67
2023-05-08T23:23:16.286Z,22.08
2023-05-08T23:25:42.778Z,17.45
2023-05-08T23:28:09.009Z,18.10
2023-05-08T23:30:35.328Z,21.65
2023-05-08T23:33:01.636Z,18.38
2023-05-08T23:35:28.234Z,21.27
2023-05-08T23:37:54.505Z,18.38
2023-05-08T23:40:20.804Z,21.77
2023-05-08T23:42:47.019Z,19.38
2023-05-08T23:45:13.449Z,18.02
2023-05-08T23:47:39.966Z,21.05
2023-05-08T23:50:06.538Z,17.85
2023-05-08T23:52:32.768Z,20.48
2023-05-08T23:54:58.995Z,17.73
2023-05-08T23:57:25.265Z,19.33
2023-05-08T23:59:51.604Z,25.77
